sensor_id;sensor_type;location;lat;lon;timestamp;pressure;altitude;pressure_sealevel;temperature;humidity
28004;BME280;15330;51.234;6.754;2022-09-09T00:04:15;100442.34;;;16.68;77.83
28004;BME280;15330;51.234;6.754;2022-09-09T00:06:49;100436.19;;;16.99;76.05
28004;BME280;15330;51.234;6.754;2022-09-09T00:09:18;100444.81;;;16.63;76.71
28004;BME280;15330;51.234;6.754;2022-09-09T00:11:47;100451.47;;;16.60;77.39
28004;BME280;15330;51.234;6.754;2022-09-09T00:17:30;100437.56;;;16.63;76.83
28004;BME280;15330;51.234;6.754;2022-09-09T00:23:24;100431.28;;;16.76;76.90
28004;BME280;15330;51.234;6.754;2022-09-09T00:28:27;100429.44;;;16.57;77.49
28004;BME280;15330;51.234;6.754;2022-09-09T00:30:53;100436.09;;;16.54;77.95
28004;BME280;15330;51.234;6.754;2022-09-09T00:33:22;100433.16;;;16.75;77.37
28004;BME280;15330;51.234;6.754;2022-09-09T00:35:51;100439.41;;;16.56;78.13
28004;BME280;15330;51.234;6.754;2022-09-09T00:38:20;100433.81;;;16.71;77.75
28004;BME280;15330;51.234;6.754;2022-09-09T00:43:30;100421.69;;;16.86;77.30
28004;BME280;15330;51.234;6.754;2022-09-09T00:46:21;100421.34;;;16.57;79.16
28004;BME280;15330;51.234;6.754;2022-09-09T00:49:00;100423.34;;;16.87;77.86
28004;BME280;15330;51.234;6.754;2022-09-09T00:54:07;100432.63;;;17.05;77.36
28004;BME280;15330;51.234;6.754;2022-09-09T00:57:34;100424.03;;;16.76;78.86
28004;BME280;15330;51.234;6.754;2022-09-09T01:00:27;100419.44;;;16.77;78.63
28004;BME280;15330;51.234;6.754;2022-09-09T01:03:19;100433.59;;;16.72;78.69
28004;BME280;15330;51.234;6.754;2022-09-09T01:20:14;100429.03;;;16.66;79.05
28004;BME280;15330;51.234;6.754;2022-09-09T01:25:22;100413.44;;;16.75;77.78
28004;BME280;15330;51.234;6.754;2022-09-09T01:27:55;100410.09;;;16.79;77.91
28004;BME280;15330;51.234;6.754;2022-09-09T01:30:22;100414.28;;;16.62;77.79
28004;BME280;15330;51.234;6.754;2022-09-09T01:32:50;100414.22;;;16.88;77.17
28004;BME280;15330;51.234;6.754;2022-09-09T01:37:57;100425.31;;;16.61;77.84
28004;BME280;15330;51.234;6.754;2022-09-09T01:40:24;100413.00;;;16.78;77.01
28004;BME280;15330;51.234;6.754;2022-09-09T01:42:50;100413.63;;;16.73;77.22
28004;BME280;15330;51.234;6.754;2022-09-09T01:45:16;100408.47;;;16.65;76.85
28004;BME280;15330;51.234;6.754;2022-09-09T01:47:42;100405.56;;;16.53;76.83
28004;BME280;15330;51.234;6.754;2022-09-09T01:50:10;100401.19;;;16.66;76.65
28004;BME280;15330;51.234;6.754;2022-09-09T01:52:38;100399.97;;;16.55;77.03
28004;BME280;15330;51.234;6.754;2022-09-09T01:55:04;100399.13;;;16.68;76.78
28004;BME280;15330;51.234;6.754;2022-09-09T01:57:34;100408.06;;;16.68;76.93
28004;BME280;15330;51.234;6.754;2022-09-09T02:00:07;100418.44;;;16.65;76.94
28004;BME280;15330;51.234;6.754;2022-09-09T02:05:37;100411.78;;;16.54;77.79
28004;BME280;15330;51.234;6.754;2022-09-09T02:08:12;100412.34;;;16.82;76.99
28004;BME280;15330;51.234;6.754;2022-09-09T02:10:53;100412.63;;;16.68;77.47
28004;BME280;15330;51.234;6.754;2022-09-09T02:13:21;100417.19;;;16.67;77.49
28004;BME280;15330;51.234;6.754;2022-09-09T02:15:53;100420.31;;;16.64;77.51
28004;BME280;15330;51.234;6.754;2022-09-09T02:18:27;100417.41;;;16.59;78.13
28004;BME280;15330;51.234;6.754;2022-09-09T02:20:55;100413.00;;;16.78;77.43
28004;BME280;15330;51.234;6.754;2022-09-09T02:23:21;100415.69;;;16.84;76.83
28004;BME280;15330;51.234;6.754;2022-09-09T02:25:48;100413.19;;;16.83;77.13
28004;BME280;15330;51.234;6.754;2022-09-09T02:28:18;100421.06;;;16.84;76.85
28004;BME280;15330;51.234;6.754;2022-09-09T02:30:47;100406.72;;;16.91;76.99
28004;BME280;15330;51.234;6.754;2022-09-09T02:33:23;100407.78;;;16.90;76.51
28004;BME280;15330;51.234;6.754;2022-09-09T02:35:51;100415.50;;;16.79;76.68
28004;BME280;15330;51.234;6.754;2022-09-09T02:38:19;100406.47;;;16.99;76.46
28004;BME280;15330;51.234;6.754;2022-09-09T02:40:46;100404.03;;;16.91;76.31
28004;BME280;15330;51.234;6.754;2022-09-09T02:43:14;100408.78;;;16.95;76.49
28004;BME280;15330;51.234;6.754;2022-09-09T02:45:53;100402.38;;;16.83;76.32
28004;BME280;15330;51.234;6.754;2022-09-09T02:48:30;100406.94;;;16.82;76.34
28004;BME280;15330;51.234;6.754;2022-09-09T02:51:06;100403.63;;;16.87;76.47
28004;BME280;15330;51.234;6.754;2022-09-09T02:53:57;100402.19;;;16.78;75.89
28004;BME280;15330;51.234;6.754;2022-09-09T02:56:25;100396.19;;;16.76;76.14
28004;BME280;15330;51.234;6.754;2022-09-09T02:58:53;100392.81;;;16.87;75.42
28004;BME280;15330;51.234;6.754;2022-09-09T03:01:19;100398.22;;;16.87;75.42
28004;BME280;15330;51.234;6.754;2022-09-09T03:03:45;100403.22;;;16.83;75.54
28004;BME280;15330;51.234;6.754;2022-09-09T03:06:11;100390.97;;;16.81;75.35
28004;BME280;15330;51.234;6.754;2022-09-09T03:08:37;100387.41;;;16.87;74.92
28004;BME280;15330;51.234;6.754;2022-09-09T03:11:03;100389.69;;;16.83;75.05
28004;BME280;15330;51.234;6.754;2022-09-09T03:13:29;100387.25;;;16.75;75.25
28004;BME280;15330;51.234;6.754;2022-09-09T03:15:54;100392.19;;;16.92;74.82
28004;BME280;15330;51.234;6.754;2022-09-09T03:18:20;100388.88;;;16.83;74.83
28004;BME280;15330;51.234;6.754;2022-09-09T03:20:46;100391.16;;;16.86;74.75
28004;BME280;15330;51.234;6.754;2022-09-09T03:23:16;100388.50;;;16.79;75.08
28004;BME280;15330;51.234;6.754;2022-09-09T03:25:48;100383.03;;;16.86;74.73
28004;BME280;15330;51.234;6.754;2022-09-09T03:28:14;100384.16;;;16.65;75.51
28004;BME280;15330;51.234;6.754;2022-09-09T03:30:40;100381.59;;;16.83;74.56
28004;BME280;15330;51.234;6.754;2022-09-09T03:33:06;100387.25;;;16.75;75.03
28004;BME280;15330;51.234;6.754;2022-09-09T03:35:31;100383.72;;;16.75;74.91
28004;BME280;15330;51.234;6.754;2022-09-09T03:37:56;100384.97;;;16.79;74.85
28004;BME280;15330;51.234;6.754;2022-09-09T03:40:22;100387.25;;;16.75;75.03
28004;BME280;15330;51.234;6.754;2022-09-09T03:42:47;100393.69;;;16.81;74.82
28004;BME280;15330;51.234;6.754;2022-09-09T03:45:14;100379.97;;;16.76;74.77
28004;BME280;15330;51.234;6.754;2022-09-09T03:47:39;100393.28;;;16.77;74.95
28004;BME280;15330;51.234;6.754;2022-09-09T03:50:06;100384.53;;;16.75;74.98
28004;BME280;15330;51.234;6.754;2022-09-09T03:52:35;100384.13;;;16.78;74.72
28004;BME280;15330;51.234;6.754;2022-09-09T03:55:00;100380.19;;;16.81;74.47
28004;BME280;15330;51.234;6.754;2022-09-09T03:57:38;100377.47;;;16.81;74.58
28004;BME280;15330;51.234;6.754;2022-09-09T04:00:07;100388.66;;;16.84;74.53
28004;BME280;15330;51.234;6.754;2022-09-09T04:02:33;100380.13;;;16.87;74.29
28004;BME280;15330;51.234;6.754;2022-09-09T04:04:58;100389.94;;;16.75;74.82
28004;BME280;15330;51.234;6.754;2022-09-09T04:07:24;100391.41;;;16.78;74.50
28004;BME280;15330;51.234;6.754;2022-09-09T04:09:52;100385.59;;;16.74;74.88
28004;BME280;15330;51.234;6.754;2022-09-09T04:12:19;100385.19;;;16.71;74.88
28004;BME280;15330;51.234;6.754;2022-09-09T04:14:44;100390.41;;;16.59;75.35
28004;BME280;15330;51.234;6.754;2022-09-09T04:17:10;100388.13;;;16.63;75.38
28004;BME280;15330;51.234;6.754;2022-09-09T04:19:36;100384.38;;;16.57;75.75
28004;BME280;15330;51.234;6.754;2022-09-09T04:22:01;100391.44;;;16.58;76.07
28004;BME280;15330;51.234;6.754;2022-09-09T04:24:26;100393.72;;;16.68;75.56
28004;BME280;15330;51.234;6.754;2022-09-09T04:26:54;100380.34;;;16.86;75.07
28004;BME280;15330;51.234;6.754;2022-09-09T04:29:19;100381.22;;;16.73;75.43
28004;BME280;15330;51.234;6.754;2022-09-09T04:31:44;100384.97;;;16.79;75.25
28004;BME280;15330;51.234;6.754;2022-09-09T04:34:10;100382.69;;;16.76;75.09
28004;BME280;15330;51.234;6.754;2022-09-09T04:36:35;100389.09;;;16.81;75.15
28004;BME280;15330;51.234;6.754;2022-09-09T04:39:01;100390.97;;;16.81;75.35
28004;BME280;15330;51.234;6.754;2022-09-09T04:41:27;100395.72;;;16.85;74.94
28004;BME280;15330;51.234;6.754;2022-09-09T04:43:53;100392.66;;;16.75;75.57
28004;BME280;15330;51.234;6.754;2022-09-09T04:46:19;100387.88;;;16.77;75.45
28004;BME280;15330;51.234;6.754;2022-09-09T04:48:45;100390.75;;;16.82;75.31
28004;BME280;15330;51.234;6.754;2022-09-09T04:51:12;100388.88;;;16.83;75.20
28004;BME280;15330;51.234;6.754;2022-09-09T04:53:39;100388.50;;;16.79;75.58
28004;BME280;15330;51.234;6.754;2022-09-09T04:56:11;100392.19;;;16.85;75.52
28004;BME280;15330;51.234;6.754;2022-09-09T04:58:38;100398.22;;;16.87;75.27
28004;BME280;15330;51.234;6.754;2022-09-09T05:01:10;100388.50;;;16.73;75.53
28004;BME280;15330;51.234;6.754;2022-09-09T05:03:37;100389.31;;;16.73;75.72
28004;BME280;15330;51.234;6.754;2022-09-09T05:06:29;100400.34;;;16.78;75.43
28004;BME280;15330;51.234;6.754;2022-09-09T05:09:22;100392.59;;;16.88;75.39
28004;BME280;15330;51.234;6.754;2022-09-09T05:11:54;100389.91;;;16.88;75.29
28004;BME280;15330;51.234;6.754;2022-09-09T05:14:20;100390.72;;;16.89;74.96
28004;BME280;15330;51.234;6.754;2022-09-09T05:16:45;100388.25;;;16.87;75.22
28004;BME280;15330;51.234;6.754;2022-09-09T05:19:12;100384.50;;;16.88;75.06
28004;BME280;15330;51.234;6.754;2022-09-09T05:21:37;100384.50;;;16.88;75.30
28004;BME280;15330;51.234;6.754;2022-09-09T05:24:03;100383.25;;;16.91;74.96
28004;BME280;15330;51.234;6.754;2022-09-09T05:26:28;100380.94;;;16.95;74.99
28004;BME280;15330;51.234;6.754;2022-09-09T05:28:57;100374.97;;;16.79;75.43
28004;BME280;15330;51.234;6.754;2022-09-09T05:31:24;100380.19;;;16.81;75.46
28004;BME280;15330;51.234;6.754;2022-09-09T05:33:52;100386.13;;;16.96;74.86
28004;BME280;15330;51.234;6.754;2022-09-09T05:36:20;100378.44;;;16.93;75.07
28004;BME280;15330;51.234;6.754;2022-09-09T05:38:46;100389.47;;;16.92;75.04
28004;BME280;15330;51.234;6.754;2022-09-09T05:41:12;100381.13;;;16.93;74.91
28004;BME280;15330;51.234;6.754;2022-09-09T05:43:38;100379.50;;;16.92;75.10
28004;BME280;15330;51.234;6.754;2022-09-09T05:46:16;100382.16;;;16.99;74.86
28004;BME280;15330;51.234;6.754;2022-09-09T05:48:44;100382.06;;;17.18;74.02
28004;BME280;15330;51.234;6.754;2022-09-09T05:51:16;100376.91;;;17.10;74.30
28004;BME280;15330;51.234;6.754;2022-09-09T05:53:43;100395.16;;;17.15;74.54
28004;BME280;15330;51.234;6.754;2022-09-09T05:56:20;100389.53;;;17.23;74.27
28004;BME280;15330;51.234;6.754;2022-09-09T05:58:47;100398.38;;;17.37;73.80
28004;BME280;15330;51.234;6.754;2022-09-09T06:01:16;100396.72;;;17.36;73.79
28004;BME280;15330;51.234;6.754;2022-09-09T06:03:44;100391.13;;;17.31;73.94
28004;BME280;15330;51.234;6.754;2022-09-09T06:06:12;100395.03;;;17.35;73.72
28004;BME280;15330;51.234;6.754;2022-09-09T06:08:41;100390.94;;;17.25;73.68
28004;BME280;15330;51.234;6.754;2022-09-09T06:13:34;100398.34;;;17.43;73.38
28004;BME280;15330;51.234;6.754;2022-09-09T06:16:03;100398.09;;;17.45;73.13
28004;BME280;15330;51.234;6.754;2022-09-09T06:18:29;100390.81;;;17.45;73.24
28004;BME280;15330;51.234;6.754;2022-09-09T06:20:58;100399.28;;;17.55;72.75
28004;BME280;15330;51.234;6.754;2022-09-09T06:23:26;100401.16;;;17.55;72.20
28004;BME280;15330;51.234;6.754;2022-09-09T06:26:19;100403.50;;;17.45;72.75
28004;BME280;15330;51.234;6.754;2022-09-09T06:28:48;100402.66;;;17.51;72.46
28004;BME280;15330;51.234;6.754;2022-09-09T06:31:17;100404.97;;;17.47;72.41
28004;BME280;15330;51.234;6.754;2022-09-09T06:33:43;100402.13;;;17.36;73.10
28004;BME280;15330;51.234;6.754;2022-09-09T06:36:14;100403.97;;;17.42;72.74
28004;BME280;15330;51.234;6.754;2022-09-09T06:38:41;100401.59;;;18.08;71.02
28004;BME280;15330;51.234;6.754;2022-09-09T06:41:08;100404.25;;;18.94;67.61
28004;BME280;15330;51.234;6.754;2022-09-09T06:43:34;100400.78;;;19.77;64.37
28004;BME280;15330;51.234;6.754;2022-09-09T06:46:05;100401.03;;;19.87;64.07
28004;BME280;15330;51.234;6.754;2022-09-09T06:48:31;100400.72;;;20.19;62.86
28004;BME280;15330;51.234;6.754;2022-09-09T06:53:35;100404.34;;;20.82;60.41
28004;BME280;15330;51.234;6.754;2022-09-09T06:58:35;100402.94;;;20.68;60.64
28004;BME280;15330;51.234;6.754;2022-09-09T07:01:03;100406.16;;;20.30;61.29
28004;BME280;15330;51.234;6.754;2022-09-09T07:03:29;100396.69;;;19.15;64.29
28004;BME280;15330;51.234;6.754;2022-09-09T07:05:55;100410.88;;;18.80;64.15
28004;BME280;15330;51.234;6.754;2022-09-09T07:08:21;100405.75;;;18.90;64.61
28004;BME280;15330;51.234;6.754;2022-09-09T07:10:47;100412.47;;;18.88;65.20
28004;BME280;15330;51.234;6.754;2022-09-09T07:13:13;100413.50;;;19.05;64.44
28004;BME280;15330;51.234;6.754;2022-09-09T07:15:41;100419.31;;;18.72;65.51
28004;BME280;15330;51.234;6.754;2022-09-09T07:18:06;100419.94;;;18.49;65.90
28004;BME280;15330;51.234;6.754;2022-09-09T07:20:32;100415.34;;;18.31;66.22
28004;BME280;15330;51.234;6.754;2022-09-09T07:22:57;100413.31;;;18.27;65.55
28004;BME280;15330;51.234;6.754;2022-09-09T07:25:23;100422.00;;;18.29;65.54
28004;BME280;15330;51.234;6.754;2022-09-09T07:27:49;100431.78;;;18.30;65.37
28004;BME280;15330;51.234;6.754;2022-09-09T07:30:14;100430.75;;;18.31;65.80
28004;BME280;15330;51.234;6.754;2022-09-09T07:32:39;100429.47;;;18.15;66.33
28004;BME280;15330;51.234;6.754;2022-09-09T07:35:05;100437.56;;;18.58;65.05
28004;BME280;15330;51.234;6.754;2022-09-09T07:37:31;100438.69;;;19.24;62.98
28004;BME280;15330;51.234;6.754;2022-09-09T07:39:56;100429.97;;;20.05;59.96
28004;BME280;15330;51.234;6.754;2022-09-09T07:42:22;100427.75;;;20.13;59.12
28004;BME280;15330;51.234;6.754;2022-09-09T07:44:47;100438.72;;;19.54;61.09
28004;BME280;15330;51.234;6.754;2022-09-09T07:47:13;100433.81;;;19.44;61.40
28004;BME280;15330;51.234;6.754;2022-09-09T07:49:38;100438.47;;;19.25;62.29
28004;BME280;15330;51.234;6.754;2022-09-09T07:52:04;100444.91;;;18.94;62.36
28004;BME280;15330;51.234;6.754;2022-09-09T07:54:29;100436.41;;;18.73;62.43
28004;BME280;15330;51.234;6.754;2022-09-09T07:56:54;100446.84;;;19.05;61.74
28004;BME280;15330;51.234;6.754;2022-09-09T07:59:20;100453.84;;;18.58;62.10
28004;BME280;15330;51.234;6.754;2022-09-09T08:01:49;100445.47;;;18.60;62.50
28004;BME280;15330;51.234;6.754;2022-09-09T08:04:19;100437.63;;;18.52;61.89
28004;BME280;15330;51.234;6.754;2022-09-09T08:06:48;100441.72;;;18.79;60.94
28004;BME280;15330;51.234;6.754;2022-09-09T08:09:14;100434.06;;;18.94;60.24
28004;BME280;15330;51.234;6.754;2022-09-09T08:11:40;100441.81;;;19.39;59.63
28004;BME280;15330;51.234;6.754;2022-09-09T08:14:07;100433.69;;;20.34;56.33
28004;BME280;15330;51.234;6.754;2022-09-09T08:16:35;100444.78;;;19.37;58.66
28004;BME280;15330;51.234;6.754;2022-09-09T08:19:04;100438.50;;;19.37;58.56
28004;BME280;15330;51.234;6.754;2022-09-09T08:21:31;100461.88;;;19.38;58.98
28004;BME280;15330;51.234;6.754;2022-09-09T08:23:59;100442.06;;;19.37;58.56
28004;BME280;15330;51.234;6.754;2022-09-09T08:26:30;100437.09;;;19.64;57.53
28004;BME280;15330;51.234;6.754;2022-09-09T08:28:58;100447.75;;;19.18;58.80
28004;BME280;15330;51.234;6.754;2022-09-09T08:31:25;100440.38;;;19.55;58.63
28004;BME280;15330;51.234;6.754;2022-09-09T08:33:53;100437.75;;;19.48;58.23
28004;BME280;15330;51.234;6.754;2022-09-09T08:36:21;100436.63;;;19.67;57.79
28004;BME280;15330;51.234;6.754;2022-09-09T08:38:49;100435.41;;;20.05;56.99
28004;BME280;15330;51.234;6.754;2022-09-09T08:41:42;100442.47;;;19.83;57.76
28004;BME280;15330;51.234;6.754;2022-09-09T08:44:30;100463.31;;;19.40;57.81
28004;BME280;15330;51.234;6.754;2022-09-09T08:52:17;100449.53;;;19.24;57.45
28004;BME280;15330;51.234;6.754;2022-09-09T08:54:45;100441.91;;;19.32;57.37
28004;BME280;15330;51.234;6.754;2022-09-09T08:57:14;100435.75;;;19.25;57.32
28004;BME280;15330;51.234;6.754;2022-09-09T08:59:43;100441.22;;;19.37;57.61
28004;BME280;15330;51.234;6.754;2022-09-09T09:02:25;100441.72;;;19.16;57.70
28004;BME280;15330;51.234;6.754;2022-09-09T09:07:54;100465.81;;;19.05;58.64
28004;BME280;15330;51.234;6.754;2022-09-09T09:12:53;100463.84;;;19.13;58.79
28004;BME280;15330;51.234;6.754;2022-09-09T09:15:30;100459.13;;;18.90;59.24
28004;BME280;15330;51.234;6.754;2022-09-09T09:17:56;100463.56;;;19.02;58.87
28004;BME280;15330;51.234;6.754;2022-09-09T09:20:50;100455.13;;;18.92;59.28
28004;BME280;15330;51.234;6.754;2022-09-09T09:23:31;100462.09;;;18.88;58.13
28004;BME280;15330;51.234;6.754;2022-09-09T09:26:00;100453.94;;;18.88;58.38
28004;BME280;15330;51.234;6.754;2022-09-09T09:28:29;100458.97;;;18.85;58.24
28004;BME280;15330;51.234;6.754;2022-09-09T09:31:08;100460.72;;;18.97;57.49
28004;BME280;15330;51.234;6.754;2022-09-09T09:36:06;100456.47;;;20.21;54.72
28004;BME280;15330;51.234;6.754;2022-09-09T09:38:34;100454.66;;;20.97;52.29
28004;BME280;15330;51.234;6.754;2022-09-09T09:40:59;100455.31;;;20.75;52.21
28004;BME280;15330;51.234;6.754;2022-09-09T09:45:57;100452.91;;;21.87;48.95
28004;BME280;15330;51.234;6.754;2022-09-09T09:48:25;100440.31;;;21.98;47.35
28004;BME280;15330;51.234;6.754;2022-09-09T09:51:00;100453.28;;;22.08;46.83
28004;BME280;15330;51.234;6.754;2022-09-09T09:53:33;100448.31;;;21.31;47.51
28004;BME280;15330;51.234;6.754;2022-09-09T09:56:05;100457.59;;;21.92;46.81
28004;BME280;15330;51.234;6.754;2022-09-09T10:01:27;100451.13;;;21.81;46.36
28004;BME280;15330;51.234;6.754;2022-09-09T10:03:59;100445.34;;;20.81;48.84
28004;BME280;15330;51.234;6.754;2022-09-09T10:06:32;100443.94;;;20.67;49.15
28004;BME280;15330;51.234;6.754;2022-09-09T10:08:58;100450.09;;;20.85;49.15
28004;BME280;15330;51.234;6.754;2022-09-09T10:11:30;100441.44;;;20.88;49.31
28004;BME280;15330;51.234;6.754;2022-09-09T10:17:01;100444.22;;;20.65;50.80
28004;BME280;15330;51.234;6.754;2022-09-09T10:19:35;100431.03;;;21.37;48.97
28004;BME280;15330;51.234;6.754;2022-09-09T10:22:19;100435.03;;;21.63;48.62
28004;BME280;15330;51.234;6.754;2022-09-09T10:30:19;100434.41;;;20.41;51.50
28004;BME280;15330;51.234;6.754;2022-09-09T10:33:09;100436.97;;;20.24;51.85
28004;BME280;15330;51.234;6.754;2022-09-09T10:38:13;100440.50;;;20.01;52.27
28004;BME280;15330;51.234;6.754;2022-09-09T10:49:06;100415.72;;;20.21;52.34
28004;BME280;15330;51.234;6.754;2022-09-09T10:51:58;100422.66;;;20.17;52.69
28004;BME280;15330;51.234;6.754;2022-09-09T10:57:11;100435.09;;;20.36;51.83
28004;BME280;15330;51.234;6.754;2022-09-09T10:59:44;100421.97;;;20.33;51.71
28004;BME280;15330;51.234;6.754;2022-09-09T11:02:27;100423.63;;;20.34;51.82
28004;BME280;15330;51.234;6.754;2022-09-09T11:07:40;100420.69;;;20.47;51.52
28004;BME280;15330;51.234;6.754;2022-09-09T11:13:13;100413.00;;;20.21;53.53
28004;BME280;15330;51.234;6.754;2022-09-09T11:15:50;100422.19;;;20.08;53.50
28004;BME280;15330;51.234;6.754;2022-09-09T11:18:21;100424.78;;;19.92;54.80
28004;BME280;15330;51.234;6.754;2022-09-09T11:20:52;100424.19;;;19.90;55.44
28004;BME280;15330;51.234;6.754;2022-09-09T11:23:44;100431.38;;;19.96;58.37
28004;BME280;15330;51.234;6.754;2022-09-09T11:26:17;100440.28;;;19.43;59.27
28004;BME280;15330;51.234;6.754;2022-09-09T11:28:58;100440.03;;;19.51;59.33
28004;BME280;15330;51.234;6.754;2022-09-09T11:31:44;100425.19;;;19.65;57.81
28004;BME280;15330;51.234;6.754;2022-09-09T11:39:57;100426.03;;;21.46;53.08
28004;BME280;15330;51.234;6.754;2022-09-09T11:42:26;100426.25;;;21.04;52.57
28004;BME280;15330;51.234;6.754;2022-09-09T11:44:52;100429.78;;;20.65;53.06
28004;BME280;15330;51.234;6.754;2022-09-09T11:47:27;100425.72;;;20.79;53.76
28004;BME280;15330;51.234;6.754;2022-09-09T11:52:42;100425.03;;;20.25;54.07
28004;BME280;15330;51.234;6.754;2022-09-09T11:55:24;100420.19;;;20.15;54.30
28004;BME280;15330;51.234;6.754;2022-09-09T11:58:00;100423.63;;;20.11;53.97
28004;BME280;15330;51.234;6.754;2022-09-09T12:00:39;100429.88;;;20.11;54.43
28004;BME280;15330;51.234;6.754;2022-09-09T12:06:26;100438.59;;;20.25;53.86
28004;BME280;15330;51.234;6.754;2022-09-09T12:09:05;100431.44;;;20.54;53.67
28004;BME280;15330;51.234;6.754;2022-09-09T12:11:31;100431.88;;;20.86;53.26
28004;BME280;15330;51.234;6.754;2022-09-09T12:13:58;100420.00;;;21.04;52.38
28004;BME280;15330;51.234;6.754;2022-09-09T12:16:35;100422.53;;;21.34;52.30
28004;BME280;15330;51.234;6.754;2022-09-09T12:24:13;100419.34;;;21.70;51.25
28004;BME280;15330;51.234;6.754;2022-09-09T12:26:51;100427.41;;;21.20;52.09
28004;BME280;15330;51.234;6.754;2022-09-09T12:29:29;100432.75;;;21.15;51.38
28004;BME280;15330;51.234;6.754;2022-09-09T12:40:00;100411.47;;;20.60;51.66
28004;BME280;15330;51.234;6.754;2022-09-09T12:42:28;100420.81;;;20.41;52.50
28004;BME280;15330;51.234;6.754;2022-09-09T12:44:59;100415.81;;;20.26;53.69
28004;BME280;15330;51.234;6.754;2022-09-09T12:47:54;100424.50;;;20.35;53.73
28004;BME280;15330;51.234;6.754;2022-09-09T12:50:23;100419.84;;;20.59;53.67
28004;BME280;15330;51.234;6.754;2022-09-09T12:52:56;100425.50;;;20.69;54.33
28004;BME280;15330;51.234;6.754;2022-09-09T12:55:35;100414.25;;;21.29;52.62
28004;BME280;15330;51.234;6.754;2022-09-09T12:58:02;100403.84;;;21.71;50.81
28004;BME280;15330;51.234;6.754;2022-09-09T13:00:32;100409.09;;;21.15;52.38
28004;BME280;15330;51.234;6.754;2022-09-09T13:03:03;100411.50;;;21.00;52.83
28004;BME280;15330;51.234;6.754;2022-09-09T13:05:39;100414.41;;;20.59;56.04
28004;BME280;15330;51.234;6.754;2022-09-09T13:08:08;100394.09;;;20.14;57.57
28004;BME280;15330;51.234;6.754;2022-09-09T13:10:59;100410.19;;;20.51;57.93
28004;BME280;15330;51.234;6.754;2022-09-09T13:13:31;100402.88;;;20.92;57.38
28004;BME280;15330;51.234;6.754;2022-09-09T13:16:00;100411.31;;;20.67;57.97
28004;BME280;15330;51.234;6.754;2022-09-09T13:18:29;100408.97;;;20.70;57.49
28004;BME280;15330;51.234;6.754;2022-09-09T13:20:56;100411.81;;;20.29;58.85
28004;BME280;15330;51.234;6.754;2022-09-09T13:23:28;100405.22;;;20.48;58.18
28004;BME280;15330;51.234;6.754;2022-09-09T13:26:06;100391.72;;;20.76;57.98
28004;BME280;15330;51.234;6.754;2022-09-09T13:28:39;100403.44;;;20.54;58.12
28004;BME280;15330;51.234;6.754;2022-09-09T13:31:18;100397.06;;;21.00;56.83
28004;BME280;15330;51.234;6.754;2022-09-09T13:33:45;100392.81;;;21.04;55.24
28004;BME280;15330;51.234;6.754;2022-09-09T13:36:12;100397.22;;;20.93;54.42
28004;BME280;15330;51.234;6.754;2022-09-09T13:39:00;100389.50;;;20.62;55.02
28004;BME280;15330;51.234;6.754;2022-09-09T13:41:36;100389.75;;;20.48;55.76
28004;BME280;15330;51.234;6.754;2022-09-09T13:44:18;100386.69;;;20.45;55.70
28004;BME280;15330;51.234;6.754;2022-09-09T13:46:44;100385.94;;;20.14;56.34
28004;BME280;15330;51.234;6.754;2022-09-09T13:51:37;100388.41;;;20.16;57.33
28004;BME280;15330;51.234;6.754;2022-09-09T13:54:06;100383.22;;;20.14;57.46
28004;BME280;15330;51.234;6.754;2022-09-09T13:56:33;100378.66;;;20.03;57.67
28004;BME280;15330;51.234;6.754;2022-09-09T13:59:00;100382.53;;;20.19;57.88
28004;BME280;15330;51.234;6.754;2022-09-09T14:01:26;100393.03;;;20.04;59.72
28004;BME280;15330;51.234;6.754;2022-09-09T14:03:52;100397.88;;;19.90;61.67
28004;BME280;15330;51.234;6.754;2022-09-09T14:06:18;100394.09;;;20.61;61.71
28004;BME280;15330;51.234;6.754;2022-09-09T14:08:44;100389.41;;;20.45;61.41
28004;BME280;15330;51.234;6.754;2022-09-09T14:11:12;100391.09;;;20.86;60.49
28004;BME280;15330;51.234;6.754;2022-09-09T14:13:38;100382.75;;;20.29;58.12
28004;BME280;15330;51.234;6.754;2022-09-09T14:16:03;100390.69;;;20.42;59.63
28004;BME280;15330;51.234;6.754;2022-09-09T14:18:29;100388.69;;;20.38;58.84
28004;BME280;15330;51.234;6.754;2022-09-09T14:20:54;100384.19;;;20.08;58.23
28004;BME280;15330;51.234;6.754;2022-09-09T14:23:19;100396.47;;;20.46;58.29
28004;BME280;15330;51.234;6.754;2022-09-09T14:25:47;100396.69;;;20.21;58.43
28004;BME280;15330;51.234;6.754;2022-09-09T14:28:13;100398.94;;;20.12;58.76
28004;BME280;15330;51.234;6.754;2022-09-09T14:30:40;100420.03;;;19.75;60.02
28004;BME280;15330;51.234;6.754;2022-09-09T14:33:08;100418.97;;;19.76;58.08
28004;BME280;15330;51.234;6.754;2022-09-09T14:35:35;100427.78;;;19.42;56.08
28004;BME280;15330;51.234;6.754;2022-09-09T14:38:01;100422.56;;;19.11;57.76
28004;BME280;15330;51.234;6.754;2022-09-09T14:40:27;100401.97;;;18.55;58.06
28004;BME280;15330;51.234;6.754;2022-09-09T14:42:53;100417.31;;;18.43;59.36
28004;BME280;15330;51.234;6.754;2022-09-09T14:45:19;100426.09;;;18.38;60.07
28004;BME280;15330;51.234;6.754;2022-09-09T14:47:46;100424.25;;;18.14;61.23
28004;BME280;15330;51.234;6.754;2022-09-09T14:50:11;100429.41;;;18.40;61.31
28004;BME280;15330;51.234;6.754;2022-09-09T14:52:37;100430.28;;;18.16;64.07
28004;BME280;15330;51.234;6.754;2022-09-09T14:55:03;100436.94;;;17.88;66.77
28004;BME280;15330;51.234;6.754;2022-09-09T14:57:29;100437.66;;;17.77;68.66
28004;BME280;15330;51.234;6.754;2022-09-09T14:59:54;100433.56;;;17.23;69.21
28004;BME280;15330;51.234;6.754;2022-09-09T15:02:19;100428.88;;;17.50;69.46
28004;BME280;15330;51.234;6.754;2022-09-09T15:04:45;100421.66;;;17.38;70.14
28004;BME280;15330;51.234;6.754;2022-09-09T15:07:11;100413.06;;;17.47;68.82